createdAt,value
2023-01-21T00:01:19.792Z,60.01
2023-01-21T00:03:48.187Z,59.52
2023-01-21T00:06:16.434Z,59.35
2023-01-21T00:08:46.007Z,58.56
2023-01-21T00:11:16.064Z,59.31
2023-01-21T00:13:45.316Z,59.27
2023-01-21T00:16:14.871Z,59.52
2023-01-21T00:18:43.054Z,59.42
2023-01-21T00:21:11.331Z,59.39
2023-01-21T00:23:39.555Z,59.37
2023-01-21T00:26:11.496Z,59.62
2023-01-21T00:28:40.238Z,59.44
2023-01-21T00:31:09.447Z,59.16
2023-01-21T00:33:37.820Z,59.54
2023-01-21T00:36:08.477Z,58.71
2023-01-21T00:38:37.414Z,60.42
2023-01-21T00:41:07.740Z,60.49
2023-01-21T00:43:37.916Z,61.38
2023-01-21T00:46:06.357Z,61.79
2023-01-21T00:48:35.182Z,60.40
2023-01-21T00:51:03.413Z,61.06
2023-01-21T00:53:35.121Z,61.83
2023-01-21T00:56:04.928Z,61.86
2023-01-21T00:58:33.735Z,60.87
2023-01-21T01:01:04.859Z,61.56
2023-01-21T01:03:33.711Z,61.91
2023-01-21T01:06:05.915Z,61.34
2023-01-21T01:08:34.483Z,62.27
2023-01-21T01:11:04.266Z,61.15
2023-01-21T01:13:34.289Z,61.45
2023-01-21T01:16:04.224Z,59.60
2023-01-21T01:18:33.828Z,58.73
2023-01-21T01:21:03.241Z,60.17
2023-01-21T01:23:31.679Z,59.25
2023-01-21T01:26:01.168Z,59.20
2023-01-21T01:28:29.893Z,59.78
2023-01-21T01:30:58.740Z,60.47
2023-01-21T01:33:29.087Z,60.67
2023-01-21T01:36:02.337Z,60.15
2023-01-21T01:38:30.633Z,60.43
2023-01-21T01:40:58.887Z,58.87
2023-01-21T01:43:29.663Z,59.55
2023-01-21T01:45:57.925Z,60.15
2023-01-21T01:48:30.933Z,59.40
2023-01-21T01:51:03.498Z,59.77
2023-01-21T01:53:33.396Z,59.08
2023-01-21T01:56:02.088Z,59.07
2023-01-21T01:58:31.787Z,59.61
2023-01-21T02:01:00.788Z,59.09
2023-01-21T02:03:50.981Z,57.56
2023-01-21T02:06:20.308Z,58.37
2023-01-21T02:08:49.670Z,59.26
2023-01-21T02:11:20.204Z,58.16
2023-01-21T02:13:53.391Z,57.59
2023-01-21T02:16:58.241Z,59.06
2023-01-21T02:20:11.517Z,60.08
2023-01-21T02:22:47.783Z,60.58
2023-01-21T02:25:52.397Z,62.17
2023-01-21T02:29:02.159Z,60.44
2023-01-21T02:31:54.793Z,60.21
2023-01-21T02:34:34.048Z,59.80
2023-01-21T02:37:10.223Z,60.22
2023-01-21T02:40:11.721Z,60.82
2023-01-21T02:42:46.535Z,62.32
2023-01-21T02:45:25.310Z,62.49
2023-01-21T02:48:06.192Z,63.50
2023-01-21T02:50:37.533Z,63.67
2023-01-21T02:53:06.552Z,64.69
2023-01-21T02:55:38.272Z,64.74
2023-01-21T02:58:09.711Z,63.81
2023-01-21T03:00:49.984Z,64.87
2023-01-21T03:03:41.463Z,64.69
2023-01-21T03:06:34.939Z,65.41
2023-01-21T03:09:13.030Z,65.26
2023-01-21T03:11:45.526Z,65.22
2023-01-21T03:14:39.017Z,65.71
2023-01-21T03:17:15.025Z,63.71
2023-01-21T03:19:58.254Z,63.00
2023-01-21T03:22:32.710Z,62.96
2023-01-21T03:25:02.314Z,63.02
2023-01-21T03:27:33.269Z,63.77
2023-01-21T03:30:07.072Z,62.41
2023-01-21T03:32:36.674Z,62.29
2023-01-21T03:35:08.827Z,62.35
2023-01-21T03:37:43.750Z,60.72
2023-01-21T03:40:21.709Z,60.12
2023-01-21T03:42:52.705Z,60.09
2023-01-21T03:45:30.361Z,59.52
2023-01-21T03:48:01.831Z,59.84
2023-01-21T03:50:38.039Z,59.35
2023-01-21T03:53:08.125Z,59.63
2023-01-21T03:55:37.288Z,59.60
2023-01-21T03:58:05.446Z,60.20
2023-01-21T04:00:33.623Z,60.21
2023-01-21T04:03:01.749Z,59.86
2023-01-21T04:05:29.927Z,59.32
2023-01-21T04:07:58.074Z,59.25
2023-01-21T04:10:27.685Z,59.29
2023-01-21T04:12:55.876Z,60.01
2023-01-21T04:15:24.035Z,60.09
2023-01-21T04:17:52.203Z,60.65
2023-01-21T04:20:20.705Z,60.71
2023-01-21T04:22:48.825Z,61.33
2023-01-21T04:25:17.003Z,60.36
2023-01-21T04:27:46.554Z,61.05
2023-01-21T04:30:15.298Z,61.80
2023-01-21T04:32:43.950Z,62.63
2023-01-21T04:35:12.094Z,62.92
2023-01-21T04:37:40.275Z,63.48
2023-01-21T04:40:09.497Z,63.36
2023-01-21T04:42:37.639Z,63.39
2023-01-21T04:45:09.128Z,64.75
2023-01-21T04:47:37.493Z,64.02
2023-01-21T04:50:06.332Z,64.03
2023-01-21T04:52:34.445Z,64.32
2023-01-21T04:55:02.626Z,64.22
2023-01-21T04:57:30.708Z,65.19
2023-01-21T04:59:58.923Z,65.72
2023-01-21T05:02:28.973Z,66.27
2023-01-21T05:04:57.120Z,66.30
2023-01-21T05:07:25.362Z,65.45
2023-01-21T05:09:53.482Z,65.11
2023-01-21T05:12:21.881Z,65.77
2023-01-21T05:14:49.964Z,65.35
2023-01-21T05:17:18.132Z,65.23
2023-01-21T05:19:47.753Z,64.63
2023-01-21T05:22:15.889Z,64.25
2023-01-21T05:24:44.268Z,64.24
2023-01-21T05:27:12.495Z,65.13
2023-01-21T05:29:41.492Z,64.58
2023-01-21T05:32:11.500Z,64.82
2023-01-21T05:34:39.659Z,65.14
2023-01-21T05:37:09.953Z,65.20
2023-01-21T05:39:38.265Z,64.84
2023-01-21T05:42:06.492Z,66.09
2023-01-21T05:44:34.688Z,66.48
2023-01-21T05:47:02.868Z,66.78
2023-01-21T05:49:30.992Z,67.09
2023-01-21T05:51:59.114Z,66.59
2023-01-21T05:54:28.669Z,65.70
2023-01-21T05:56:56.889Z,66.04
2023-01-21T05:59:25.024Z,66.58
2023-01-21T06:01:53.214Z,66.48
2023-01-21T06:04:23.880Z,66.14
2023-01-21T06:06:52.247Z,65.38
2023-01-21T06:09:20.790Z,65.96
2023-01-21T06:11:50.517Z,66.46
2023-01-21T06:14:18.699Z,65.89
2023-01-21T06:16:46.834Z,65.93
2023-01-21T06:19:15.070Z,65.19
2023-01-21T06:21:43.256Z,65.36
2023-01-21T06:24:11.429Z,65.78
2023-01-21T06:26:39.573Z,66.03
2023-01-21T06:29:09.124Z,64.81
2023-01-21T06:31:37.425Z,64.69
2023-01-21T06:34:05.668Z,64.82
2023-01-21T06:36:33.799Z,64.09
2023-01-21T06:39:01.948Z,64.14
2023-01-21T06:41:30.056Z,63.34
2023-01-21T06:43:58.225Z,64.06
2023-01-21T06:46:27.848Z,63.89
2023-01-21T06:48:56.046Z,64.39
2023-01-21T06:51:24.217Z,64.02
2023-01-21T06:53:52.419Z,64.52
2023-01-21T06:56:20.653Z,65.76
2023-01-21T06:58:48.802Z,65.47
2023-01-21T07:01:16.902Z,65.52
2023-01-21T07:03:46.565Z,64.68
2023-01-21T07:06:14.700Z,65.30
2023-01-21T07:08:42.827Z,63.99
2023-01-21T07:11:10.951Z,63.57
2023-01-21T07:13:39.135Z,62.90
2023-01-21T07:16:08.427Z,63.44
2023-01-21T07:18:36.643Z,63.07
2023-01-21T07:21:06.671Z,62.64
2023-01-21T07:23:34.854Z,62.75
2023-01-21T07:26:02.976Z,63.40
2023-01-21T07:28:31.166Z,63.13
2023-01-21T07:31:01.052Z,63.07
2023-01-21T07:33:30.015Z,63.40
2023-01-21T07:35:58.163Z,62.96
2023-01-21T07:38:27.778Z,62.81
2023-01-21T07:40:55.959Z,63.26
2023-01-21T07:43:24.181Z,63.50
2023-01-21T07:45:52.550Z,63.33
2023-01-21T07:48:20.774Z,63.60
2023-01-21T07:50:48.998Z,63.08
2023-01-21T07:53:17.092Z,63.16
2023-01-21T07:55:46.682Z,63.61
2023-01-21T07:58:14.781Z,63.64
2023-01-21T08:00:44.208Z,63.90
2023-01-21T08:03:12.405Z,63.59
2023-01-21T08:05:40.572Z,64.29
2023-01-21T08:08:08.687Z,63.69
2023-01-21T08:10:36.916Z,64.03
2023-01-21T08:13:08.017Z,63.69
2023-01-21T08:15:36.210Z,64.24
2023-01-21T08:18:04.553Z,64.32
2023-01-21T08:20:32.748Z,64.47
2023-01-21T08:23:01.705Z,64.68
2023-01-21T08:25:29.901Z,63.82
2023-01-21T08:28:00.322Z,63.31
2023-01-21T08:30:29.915Z,63.37
2023-01-21T08:32:58.412Z,63.25
2023-01-21T08:35:26.626Z,63.38
2023-01-21T08:37:56.004Z,62.85
2023-01-21T08:40:26.403Z,63.01
2023-01-21T08:42:54.598Z,63.02
2023-01-21T08:45:22.912Z,63.41
2023-01-21T08:47:52.616Z,62.51
2023-01-21T08:50:21.359Z,61.96
2023-01-21T08:52:53.200Z,62.54
2023-01-21T08:55:22.514Z,62.47
2023-01-21T08:57:52.266Z,62.47
2023-01-21T09:00:21.481Z,62.50
2023-01-21T09:02:51.509Z,62.46
2023-01-21T09:05:21.784Z,61.37
2023-01-21T09:07:49.984Z,61.87
2023-01-21T09:10:38.648Z,61.63
2023-01-21T09:13:07.788Z,61.58
2023-01-21T09:15:39.369Z,61.44
2023-01-21T09:18:07.622Z,61.08
2023-01-21T09:20:37.269Z,60.98
2023-01-21T09:23:24.453Z,61.07
2023-01-21T09:25:53.282Z,61.43
2023-01-21T09:28:22.410Z,61.07
2023-01-21T09:30:50.638Z,60.72
2023-01-21T09:33:18.837Z,60.23
2023-01-21T09:35:54.294Z,60.61
2023-01-21T09:38:22.488Z,60.32
2023-01-21T09:40:51.053Z,60.04
2023-01-21T09:43:24.678Z,60.04
2023-01-21T09:45:57.404Z,59.49
2023-01-21T09:48:31.485Z,58.17
2023-01-21T09:51:06.086Z,59.89
2023-01-21T09:53:41.572Z,58.22
2023-01-21T09:56:20.388Z,58.45
2023-01-21T09:58:52.953Z,58.09
2023-01-21T10:01:27.253Z,57.10
2023-01-21T10:03:59.373Z,57.26
2023-01-21T10:06:35.366Z,57.30
2023-01-21T10:09:17.360Z,57.07
2023-01-21T10:12:03.652Z,57.06
2023-01-21T10:15:04.469Z,56.09
2023-01-21T10:17:47.635Z,56.37
2023-01-21T10:20:23.321Z,56.05
2023-01-21T10:22:58.689Z,54.13
2023-01-21T10:25:31.360Z,54.48
2023-01-21T10:28:03.918Z,54.27
2023-01-21T10:30:37.858Z,54.74
2023-01-21T10:33:08.383Z,54.58
2023-01-21T10:35:49.884Z,53.21
2023-01-21T10:38:28.846Z,52.98
2023-01-21T10:41:06.292Z,53.72
2023-01-21T10:43:42.907Z,53.51
2023-01-21T10:46:20.261Z,53.66
2023-01-21T10:48:55.568Z,54.02
2023-01-21T10:51:33.304Z,53.73
2023-01-21T10:54:11.207Z,52.73
2023-01-21T10:56:50.202Z,53.71
2023-01-21T10:59:22.562Z,52.74
2023-01-21T11:01:56.395Z,54.28
2023-01-21T11:04:25.754Z,53.65
2023-01-21T11:07:00.480Z,53.92
2023-01-21T11:09:34.281Z,52.21
2023-01-21T11:12:03.089Z,52.79
2023-01-21T11:14:31.433Z,53.65
2023-01-21T11:17:00.410Z,52.03
2023-01-21T11:19:31.098Z,52.09
2023-01-21T11:22:05.204Z,51.78
2023-01-21T11:24:44.186Z,51.56
2023-01-21T11:27:21.075Z,51.23
2023-01-21T11:29:50.699Z,50.81
2023-01-21T11:32:21.980Z,51.70
2023-01-21T11:34:53.049Z,51.44
2023-01-21T11:37:25.503Z,51.11
2023-01-21T11:39:57.430Z,51.49
2023-01-21T11:42:26.301Z,51.00
2023-01-21T11:44:56.863Z,51.57
2023-01-21T11:47:33.588Z,51.26
2023-01-21T11:50:19.081Z,51.35
2023-01-21T11:52:47.527Z,51.64
2023-01-21T11:55:23.642Z,51.47
2023-01-21T11:57:54.827Z,51.67
2023-01-21T12:00:25.634Z,51.86
2023-01-21T12:02:58.080Z,51.40
2023-01-21T12:05:34.008Z,51.33
2023-01-21T12:08:04.074Z,50.71
2023-01-21T12:10:37.286Z,50.42
2023-01-21T12:13:18.741Z,51.58
2023-01-21T12:16:16.568Z,51.75
2023-01-21T12:19:03.252Z,51.04
2023-01-21T12:21:41.566Z,52.04
2023-01-21T12:24:21.150Z,52.02
2023-01-21T12:26:57.541Z,52.09
2023-01-21T12:29:38.701Z,51.61
2023-01-21T12:32:13.230Z,51.90
2023-01-21T12:34:46.140Z,51.32
2023-01-21T12:37:23.920Z,52.57
2023-01-21T12:39:55.572Z,52.48
2023-01-21T12:42:34.153Z,52.36
2023-01-21T12:45:05.953Z,53.30
2023-01-21T12:47:40.389Z,52.61
2023-01-21T12:50:27.700Z,52.03
2023-01-21T12:53:18.280Z,52.48
2023-01-21T12:56:04.569Z,52.17
2023-01-21T12:58:39.674Z,52.61
2023-01-21T13:01:12.535Z,52.38
2023-01-21T13:03:52.941Z,52.47
2023-01-21T13:06:37.922Z,52.87
2023-01-21T13:09:21.503Z,53.20
2023-01-21T13:11:56.001Z,53.17
2023-01-21T13:14:30.857Z,52.55
2023-01-21T13:17:01.920Z,53.16
2023-01-21T13:19:30.103Z,52.63
2023-01-21T13:22:04.381Z,52.80
2023-01-21T13:24:35.957Z,53.25
2023-01-21T13:27:14.512Z,53.48
2023-01-21T13:29:52.763Z,53.64
2023-01-21T13:32:32.597Z,53.86
2023-01-21T13:35:16.111Z,54.02
2023-01-21T13:37:53.110Z,53.40
2023-01-21T13:40:34.080Z,53.92
2023-01-21T13:43:12.696Z,52.89
2023-01-21T13:45:53.675Z,54.25
2023-01-21T13:48:38.360Z,53.51
2023-01-21T13:51:22.347Z,53.80
2023-01-21T13:54:11.774Z,54.39
2023-01-21T13:56:57.542Z,54.30
2023-01-21T13:59:30.820Z,53.60
2023-01-21T14:02:07.161Z,54.29
2023-01-21T14:04:41.684Z,53.99
2023-01-21T14:07:15.482Z,53.98
2023-01-21T14:09:48.853Z,55.06
2023-01-21T14:12:21.461Z,54.56
2023-01-21T14:15:21.486Z,54.04
2023-01-21T14:18:07.246Z,54.25
2023-01-21T14:21:25.886Z,54.63
2023-01-21T14:24:06.720Z,54.74
2023-01-21T14:26:54.777Z,54.42
2023-01-21T14:29:32.173Z,55.62
2023-01-21T14:32:13.797Z,55.46
2023-01-21T14:34:50.874Z,55.47
2023-01-21T14:37:30.072Z,55.19
2023-01-21T14:40:07.567Z,55.46
2023-01-21T14:42:44.182Z,55.03
2023-01-21T14:45:15.105Z,55.42
2023-01-21T14:47:46.840Z,55.16
2023-01-21T14:50:52.879Z,56.99
2023-01-21T14:53:24.793Z,58.89
2023-01-21T14:56:20.533Z,59.77
2023-01-21T14:58:51.140Z,58.11
2023-01-21T15:01:42.722Z,59.06
2023-01-21T15:04:24.655Z,60.60
2023-01-21T15:06:58.970Z,59.94
2023-01-21T15:09:31.469Z,60.39
2023-01-21T15:12:03.190Z,61.41
2023-01-21T15:14:35.639Z,62.26
2023-01-21T15:17:04.358Z,61.92
2023-01-21T15:19:34.583Z,61.62
2023-01-21T15:22:20.988Z,62.73
2023-01-21T15:25:25.489Z,63.20
2023-01-21T15:28:43.861Z,63.87
2023-01-21T15:31:14.688Z,64.15
2023-01-21T15:33:51.010Z,65.01
2023-01-21T15:36:26.014Z,65.09
2023-01-21T15:39:01.964Z,65.56
2023-01-21T15:41:44.211Z,65.37
2023-01-21T15:44:33.043Z,66.26
2023-01-21T15:47:12.396Z,66.11
2023-01-21T15:49:53.391Z,66.68
2023-01-21T15:52:36.446Z,67.06
2023-01-21T15:55:32.450Z,67.97
2023-01-21T15:58:11.439Z,68.54
2023-01-21T16:00:50.163Z,68.64
2023-01-21T16:03:25.165Z,69.01
2023-01-21T16:06:03.126Z,69.48
2023-01-21T16:08:47.331Z,69.16
2023-01-21T16:11:34.953Z,69.91
2023-01-21T16:14:16.017Z,69.38
2023-01-21T16:16:57.560Z,69.72
2023-01-21T16:19:30.553Z,69.44
2023-01-21T16:22:02.737Z,70.13
2023-01-21T16:24:31.454Z,69.46
2023-01-21T16:27:19.576Z,69.09
2023-01-21T16:29:47.831Z,69.28
2023-01-21T16:32:20.710Z,69.38
2023-01-21T16:34:49.198Z,68.82
2023-01-21T16:37:19.486Z,69.35
2023-01-21T16:39:47.901Z,68.80
2023-01-21T16:42:27.586Z,69.18
2023-01-21T16:44:55.942Z,68.61
2023-01-21T16:47:27.357Z,68.47
2023-01-21T16:49:55.706Z,68.37
2023-01-21T16:52:24.979Z,68.60
2023-01-21T16:54:54.882Z,68.59
2023-01-21T16:57:29.010Z,68.92
2023-01-21T16:59:58.244Z,68.96
2023-01-21T17:02:28.636Z,68.78
2023-01-21T17:04:59.024Z,69.27
2023-01-21T17:07:30.535Z,69.92
2023-01-21T17:10:03.857Z,70.15
2023-01-21T17:12:36.244Z,69.85
2023-01-21T17:15:15.656Z,69.93
2023-01-21T17:17:44.365Z,70.34
2023-01-21T17:20:38.322Z,70.60
2023-01-21T17:23:08.767Z,70.37
2023-01-21T17:25:38.291Z,70.70
2023-01-21T17:28:19.769Z,70.87
2023-01-21T17:30:48.351Z,70.95
2023-01-21T17:33:31.057Z,71.06
2023-01-21T17:36:11.770Z,71.03
2023-01-21T17:38:41.148Z,71.16
2023-01-21T17:41:11.872Z,70.55
2023-01-21T17:43:48.557Z,71.16
2023-01-21T17:46:20.278Z,70.46
2023-01-21T17:48:48.643Z,70.53
2023-01-21T17:51:19.825Z,69.69
2023-01-21T17:53:53.936Z,69.83
2023-01-21T17:56:38.256Z,69.48
2023-01-21T17:59:31.594Z,70.21
2023-01-21T18:01:59.920Z,69.14
2023-01-21T18:04:28.484Z,69.31
2023-01-21T18:06:57.526Z,68.92
2023-01-21T18:09:28.540Z,67.26
2023-01-21T18:11:58.945Z,67.72
2023-01-21T18:14:29.001Z,67.97
2023-01-21T18:16:57.377Z,67.90
2023-01-21T18:19:32.462Z,67.87
2023-01-21T18:22:01.594Z,67.15
2023-01-21T18:24:30.128Z,66.72
2023-01-21T18:26:59.237Z,67.11
2023-01-21T18:29:31.547Z,67.28
2023-01-21T18:32:00.297Z,66.16
2023-01-21T18:34:29.281Z,65.50
2023-01-21T18:36:58.225Z,65.58
2023-01-21T18:39:26.455Z,64.59
2023-01-21T18:41:54.653Z,65.07
2023-01-21T18:44:22.858Z,64.90
2023-01-21T18:46:52.668Z,64.53
2023-01-21T18:49:23.095Z,64.31
2023-01-21T18:51:51.464Z,64.38
2023-01-21T18:54:19.760Z,64.01
2023-01-21T18:56:48.197Z,64.21
2023-01-21T18:59:18.215Z,63.97
2023-01-21T19:01:46.784Z,63.84
2023-01-21T19:04:19.043Z,63.06
2023-01-21T19:06:47.910Z,62.93
2023-01-21T19:09:21.297Z,63.05
2023-01-21T19:11:50.277Z,63.28
2023-01-21T19:14:18.922Z,63.19
2023-01-21T19:16:47.865Z,63.05
2023-01-21T19:19:19.982Z,62.95
2023-01-21T19:21:48.221Z,62.62
2023-01-21T19:24:16.521Z,62.73
2023-01-21T19:26:44.792Z,62.38
2023-01-21T19:29:16.623Z,61.64
2023-01-21T19:31:45.017Z,61.50
2023-01-21T19:34:13.359Z,61.81
2023-01-21T19:36:43.124Z,61.51
2023-01-21T19:39:17.136Z,61.43
2023-01-21T19:41:45.497Z,61.52
2023-01-21T19:44:13.757Z,61.04
2023-01-21T19:46:42.559Z,60.95
2023-01-21T19:49:15.690Z,60.67
2023-01-21T19:51:46.012Z,60.33
2023-01-21T19:54:14.212Z,60.95
2023-01-21T19:56:42.525Z,61.06
2023-01-21T19:59:13.449Z,59.93
2023-01-21T20:01:41.767Z,60.37
2023-01-21T20:04:10.629Z,60.13
2023-01-21T20:06:42.054Z,59.68
2023-01-21T20:09:17.835Z,60.05
2023-01-21T20:11:46.185Z,60.26
2023-01-21T20:14:14.501Z,60.04
2023-01-21T20:16:47.282Z,60.43
2023-01-21T20:19:17.715Z,60.30
2023-01-21T20:22:00.399Z,59.76
2023-01-21T20:24:34.151Z,59.76
2023-01-21T20:27:06.456Z,60.34
2023-01-21T20:29:37.789Z,60.16
2023-01-21T20:32:08.178Z,59.90
2023-01-21T20:34:37.519Z,60.35
2023-01-21T20:37:05.819Z,60.05
2023-01-21T20:39:35.631Z,60.18
2023-01-21T20:42:03.859Z,60.31
2023-01-21T20:44:32.164Z,59.96
2023-01-21T20:47:01.793Z,59.57
2023-01-21T20:49:30.856Z,59.75
2023-01-21T20:51:59.105Z,60.40
2023-01-21T20:54:27.328Z,59.46
2023-01-21T20:56:57.080Z,59.83
2023-01-21T20:59:25.412Z,59.76
2023-01-21T21:01:55.597Z,60.02
2023-01-21T21:04:31.231Z,59.13
2023-01-21T21:06:59.624Z,59.85
2023-01-21T21:09:27.836Z,59.35
2023-01-21T21:11:57.384Z,59.41
2023-01-21T21:14:25.652Z,59.60
2023-01-21T21:16:54.651Z,59.49
2023-01-21T21:19:23.082Z,59.18
2023-01-21T21:21:51.758Z,59.18
2023-01-21T21:24:23.173Z,59.68
2023-01-21T21:26:52.500Z,60.08
2023-01-21T21:29:22.342Z,59.47
2023-01-21T21:31:52.120Z,59.91
2023-01-21T21:34:26.113Z,59.58
2023-01-21T21:36:54.493Z,59.63
2023-01-21T21:39:22.770Z,59.67
2023-01-21T21:42:08.415Z,59.23
2023-01-21T21:44:39.132Z,59.66
2023-01-21T21:47:24.749Z,58.90
2023-01-21T21:49:53.238Z,58.90
2023-01-21T21:52:21.650Z,59.25
2023-01-21T21:54:49.883Z,59.24
2023-01-21T21:57:18.544Z,59.50
2023-01-21T21:59:48.151Z,59.22
2023-01-21T22:02:16.415Z,59.52
2023-01-21T22:04:44.615Z,59.54
2023-01-21T22:07:12.963Z,60.28
2023-01-21T22:09:41.319Z,59.83
2023-01-21T22:12:09.568Z,59.58
2023-01-21T22:14:37.785Z,59.94
2023-01-21T22:17:08.836Z,60.06
2023-01-21T22:19:37.873Z,60.35
2023-01-21T22:22:06.249Z,60.22
2023-01-21T22:24:34.511Z,60.16
2023-01-21T22:27:02.850Z,59.80
2023-01-21T22:29:31.060Z,60.17
2023-01-21T22:31:59.287Z,60.35
2023-01-21T22:34:28.953Z,60.22
2023-01-21T22:36:57.247Z,60.79
2023-01-21T22:39:25.561Z,60.79
2023-01-21T22:41:55.314Z,61.09
2023-01-21T22:44:23.572Z,61.16
2023-01-21T22:46:51.795Z,61.03
2023-01-21T22:49:20.261Z,61.55
2023-01-21T22:51:49.860Z,61.21
2023-01-21T22:54:18.283Z,60.88
2023-01-21T22:56:52.441Z,61.46
2023-01-21T22:59:21.774Z,60.95
2023-01-21T23:01:51.348Z,61.71
2023-01-21T23:04:19.683Z,61.41
2023-01-21T23:06:54.908Z,61.09
2023-01-21T23:09:23.262Z,60.86
2023-01-21T23:11:52.793Z,61.08
2023-01-21T23:14:21.503Z,60.47
2023-01-21T23:16:49.783Z,60.67
2023-01-21T23:19:18.078Z,60.75
2023-01-21T23:21:46.357Z,59.87
2023-01-21T23:24:15.996Z,60.55
2023-01-21T23:26:44.205Z,60.29
2023-01-21T23:29:12.396Z,59.74
2023-01-21T23:31:40.708Z,59.76
2023-01-21T23:34:08.984Z,60.08
2023-01-21T23:36:37.187Z,60.03
2023-01-21T23:39:05.472Z,59.94
2023-01-21T23:41:35.124Z,59.34
2023-01-21T23:44:03.462Z,60.01
2023-01-21T23:46:31.721Z,59.59
2023-01-21T23:48:59.849Z,59.31
2023-01-21T23:51:28.092Z,59.34
2023-01-21T23:53:57.831Z,58.37
2023-01-21T23:56:27.104Z,58.92
2023-01-21T23:58:56.758Z,59.10
